sensor_id;sensor_type;location;lat;lon;timestamp;P1;durP1;ratioP1;P2;durP2;ratioP2
12171;SDS011;6149;52.418;13.668;2023-04-25T00:02:04;4.47;;;3.50;;
12171;SDS011;6149;52.418;13.668;2023-04-25T00:04:36;5.47;;;3.20;;
12171;SDS011;6149;52.418;13.668;2023-04-25T00:07:04;4.73;;;3.63;;
12171;SDS011;6149;52.418;13.668;2023-04-25T00:09:34;8.40;;;3.27;;
12171;SDS011;6149;52.418;13.668;2023-04-25T00:12:03;4.90;;;3.50;;
12171;SDS011;6149;52.418;13.668;2023-04-25T00:14:31;6.57;;;3.53;;
12171;SDS011;6149;52.418;13.668;2023-04-25T00:17:00;4.20;;;3.20;;
12171;SDS011;6149;52.418;13.668;2023-04-25T00:19:27;5.13;;;3.23;;
12171;SDS011;6149;52.418;13.668;2023-04-25T00:21:57;6.70;;;2.90;;
12171;SDS011;6149;52.418;13.668;2023-04-25T00:24:26;5.10;;;2.67;;
12171;SDS011;6149;52.418;13.668;2023-04-25T00:26:53;6.43;;;2.97;;
12171;SDS011;6149;52.418;13.668;2023-04-25T00:29:21;3.37;;;2.50;;
12171;SDS011;6149;52.418;13.668;2023-04-25T00:31:51;5.00;;;2.73;;
12171;SDS011;6149;52.418;13.668;2023-04-25T00:34:18;3.47;;;2.53;;
12171;SDS011;6149;52.418;13.668;2023-04-25T00:36:49;2.90;;;2.20;;
12171;SDS011;6149;52.418;13.668;2023-04-25T00:39:23;4.57;;;2.17;;
12171;SDS011;6149;52.418;13.668;2023-04-25T00:41:51;3.30;;;2.40;;
12171;SDS011;6149;52.418;13.668;2023-04-25T00:44:21;3.83;;;2.13;;
12171;SDS011;6149;52.418;13.668;2023-04-25T00:46:49;4.17;;;2.37;;
12171;SDS011;6149;52.418;13.668;2023-04-25T00:49:19;5.90;;;2.50;;
12171;SDS011;6149;52.418;13.668;2023-04-25T00:51:49;4.20;;;2.20;;
12171;SDS011;6149;52.418;13.668;2023-04-25T00:54:24;3.77;;;2.20;;
12171;SDS011;6149;52.418;13.668;2023-04-25T00:56:52;5.03;;;2.23;;
12171;SDS011;6149;52.418;13.668;2023-04-25T00:59:23;4.73;;;2.60;;
12171;SDS011;6149;52.418;13.668;2023-04-25T01:01:51;5.17;;;2.50;;
12171;SDS011;6149;52.418;13.668;2023-04-25T01:04:19;5.67;;;2.10;;
12171;SDS011;6149;52.418;13.668;2023-04-25T01:06:48;5.33;;;2.00;;
12171;SDS011;6149;52.418;13.668;2023-04-25T01:09:21;5.57;;;2.17;;
12171;SDS011;6149;52.418;13.668;2023-04-25T01:11:51;5.20;;;2.60;;
12171;SDS011;6149;52.418;13.668;2023-04-25T01:14:19;4.80;;;2.67;;
12171;SDS011;6149;52.418;13.668;2023-04-25T01:16:49;5.10;;;2.30;;
12171;SDS011;6149;52.418;13.668;2023-04-25T01:19:19;4.60;;;2.80;;
12171;SDS011;6149;52.418;13.668;2023-04-25T01:21:56;3.07;;;2.50;;
12171;SDS011;6149;52.418;13.668;2023-04-25T01:24:24;7.70;;;3.37;;
12171;SDS011;6149;52.418;13.668;2023-04-25T01:26:52;3.40;;;2.57;;
12171;SDS011;6149;52.418;13.668;2023-04-25T01:29:22;5.23;;;2.67;;
12171;SDS011;6149;52.418;13.668;2023-04-25T01:31:51;7.33;;;3.17;;
12171;SDS011;6149;52.418;13.668;2023-04-25T01:34:20;5.50;;;2.83;;
12171;SDS011;6149;52.418;13.668;2023-04-25T01:36:49;6.07;;;2.80;;
12171;SDS011;6149;52.418;13.668;2023-04-25T01:39:23;5.97;;;3.23;;
12171;SDS011;6149;52.418;13.668;2023-04-25T01:41:52;4.80;;;3.00;;
12171;SDS011;6149;52.418;13.668;2023-04-25T01:44:18;6.53;;;3.10;;
12171;SDS011;6149;52.418;13.668;2023-04-25T01:46:49;4.13;;;2.73;;
12171;SDS011;6149;52.418;13.668;2023-04-25T01:49:18;9.07;;;3.40;;
12171;SDS011;6149;52.418;13.668;2023-04-25T01:51:48;6.17;;;3.00;;
12171;SDS011;6149;52.418;13.668;2023-04-25T01:54:19;5.63;;;2.83;;
12171;SDS011;6149;52.418;13.668;2023-04-25T01:56:51;5.23;;;3.03;;
12171;SDS011;6149;52.418;13.668;2023-04-25T01:59:19;4.60;;;2.87;;
12171;SDS011;6149;52.418;13.668;2023-04-25T02:01:48;5.37;;;3.13;;
12171;SDS011;6149;52.418;13.668;2023-04-25T02:04:19;5.33;;;3.07;;
12171;SDS011;6149;52.418;13.668;2023-04-25T02:06:55;4.33;;;2.50;;
12171;SDS011;6149;52.418;13.668;2023-04-25T02:09:24;6.63;;;3.23;;
12171;SDS011;6149;52.418;13.668;2023-04-25T02:11:57;4.83;;;2.43;;
12171;SDS011;6149;52.418;13.668;2023-04-25T02:14:25;3.73;;;2.90;;
12171;SDS011;6149;52.418;13.668;2023-04-25T02:16:52;3.80;;;3.00;;
12171;SDS011;6149;52.418;13.668;2023-04-25T02:19:19;5.60;;;3.40;;
12171;SDS011;6149;52.418;13.668;2023-04-25T02:21:50;5.77;;;3.23;;
12171;SDS011;6149;52.418;13.668;2023-04-25T02:24:21;5.97;;;3.27;;
12171;SDS011;6149;52.418;13.668;2023-04-25T02:26:48;5.07;;;3.10;;
12171;SDS011;6149;52.418;13.668;2023-04-25T02:29:24;4.97;;;3.47;;
12171;SDS011;6149;52.418;13.668;2023-04-25T02:31:52;6.63;;;3.63;;
12171;SDS011;6149;52.418;13.668;2023-04-25T02:34:22;5.87;;;3.23;;
12171;SDS011;6149;52.418;13.668;2023-04-25T02:36:50;6.87;;;3.70;;
12171;SDS011;6149;52.418;13.668;2023-04-25T02:39:19;6.40;;;3.23;;
12171;SDS011;6149;52.418;13.668;2023-04-25T02:41:50;6.33;;;3.30;;
12171;SDS011;6149;52.418;13.668;2023-04-25T02:44:21;5.03;;;3.63;;
12171;SDS011;6149;52.418;13.668;2023-04-25T02:46:49;6.53;;;3.47;;
12171;SDS011;6149;52.418;13.668;2023-04-25T02:49:21;6.93;;;3.37;;
12171;SDS011;6149;52.418;13.668;2023-04-25T02:51:49;6.37;;;3.20;;
12171;SDS011;6149;52.418;13.668;2023-04-25T02:54:18;6.03;;;3.87;;
12171;SDS011;6149;52.418;13.668;2023-04-25T02:56:48;8.70;;;4.00;;
12171;SDS011;6149;52.418;13.668;2023-04-25T02:59:16;7.60;;;3.93;;
12171;SDS011;6149;52.418;13.668;2023-04-25T03:01:45;6.93;;;3.60;;
12171;SDS011;6149;52.418;13.668;2023-04-25T03:04:12;7.53;;;3.43;;
12171;SDS011;6149;52.418;13.668;2023-04-25T03:06:40;6.17;;;3.57;;
12171;SDS011;6149;52.418;13.668;2023-04-25T03:09:08;7.87;;;3.40;;
12171;SDS011;6149;52.418;13.668;2023-04-25T03:11:38;6.40;;;3.80;;
12171;SDS011;6149;52.418;13.668;2023-04-25T03:14:06;6.20;;;3.40;;
12171;SDS011;6149;52.418;13.668;2023-04-25T03:16:34;7.80;;;3.57;;
12171;SDS011;6149;52.418;13.668;2023-04-25T03:19:03;7.73;;;3.90;;
12171;SDS011;6149;52.418;13.668;2023-04-25T03:21:32;6.37;;;3.67;;
12171;SDS011;6149;52.418;13.668;2023-04-25T03:24:01;6.97;;;4.20;;
12171;SDS011;6149;52.418;13.668;2023-04-25T03:26:31;5.27;;;3.63;;
12171;SDS011;6149;52.418;13.668;2023-04-25T03:28:59;6.97;;;3.63;;
12171;SDS011;6149;52.418;13.668;2023-04-25T03:31:26;6.50;;;3.90;;
12171;SDS011;6149;52.418;13.668;2023-04-25T03:33:54;9.27;;;4.23;;
12171;SDS011;6149;52.418;13.668;2023-04-25T03:36:26;5.93;;;3.77;;
12171;SDS011;6149;52.418;13.668;2023-04-25T03:38:54;5.90;;;3.73;;
12171;SDS011;6149;52.418;13.668;2023-04-25T03:41:22;7.83;;;4.07;;
12171;SDS011;6149;52.418;13.668;2023-04-25T03:43:49;7.87;;;3.50;;
12171;SDS011;6149;52.418;13.668;2023-04-25T03:46:20;4.87;;;3.53;;
12171;SDS011;6149;52.418;13.668;2023-04-25T03:48:50;7.23;;;3.73;;
12171;SDS011;6149;52.418;13.668;2023-04-25T03:51:18;6.73;;;4.00;;
12171;SDS011;6149;52.418;13.668;2023-04-25T03:53:50;5.33;;;3.50;;
12171;SDS011;6149;52.418;13.668;2023-04-25T03:56:19;7.67;;;3.90;;
12171;SDS011;6149;52.418;13.668;2023-04-25T03:58:50;8.10;;;4.07;;
12171;SDS011;6149;52.418;13.668;2023-04-25T04:01:18;8.40;;;4.53;;
12171;SDS011;6149;52.418;13.668;2023-04-25T04:03:45;9.03;;;4.07;;
12171;SDS011;6149;52.418;13.668;2023-04-25T04:06:13;5.10;;;3.70;;
12171;SDS011;6149;52.418;13.668;2023-04-25T04:08:41;6.63;;;3.93;;
12171;SDS011;6149;52.418;13.668;2023-04-25T04:11:10;6.50;;;4.30;;
12171;SDS011;6149;52.418;13.668;2023-04-25T04:13:38;8.53;;;4.10;;
12171;SDS011;6149;52.418;13.668;2023-04-25T04:16:06;8.03;;;4.10;;
12171;SDS011;6149;52.418;13.668;2023-04-25T04:18:33;8.33;;;4.40;;
12171;SDS011;6149;52.418;13.668;2023-04-25T04:21:02;6.27;;;3.80;;
12171;SDS011;6149;52.418;13.668;2023-04-25T04:23:30;8.20;;;4.40;;
12171;SDS011;6149;52.418;13.668;2023-04-25T04:25:58;8.27;;;4.20;;
12171;SDS011;6149;52.418;13.668;2023-04-25T04:28:27;6.63;;;4.10;;
12171;SDS011;6149;52.418;13.668;2023-04-25T04:30:55;8.40;;;4.03;;
12171;SDS011;6149;52.418;13.668;2023-04-25T04:33:25;6.73;;;3.90;;
12171;SDS011;6149;52.418;13.668;2023-04-25T04:35:53;6.93;;;4.00;;
12171;SDS011;6149;52.418;13.668;2023-04-25T04:38:22;5.57;;;3.53;;
12171;SDS011;6149;52.418;13.668;2023-04-25T04:40:50;8.87;;;3.80;;
12171;SDS011;6149;52.418;13.668;2023-04-25T04:43:31;6.90;;;4.37;;
12171;SDS011;6149;52.418;13.668;2023-04-25T04:46:00;5.40;;;3.87;;
12171;SDS011;6149;52.418;13.668;2023-04-25T04:48:31;6.13;;;4.17;;
12171;SDS011;6149;52.418;13.668;2023-04-25T04:51:00;9.03;;;4.60;;
12171;SDS011;6149;52.418;13.668;2023-04-25T04:53:28;10.63;;;4.30;;
12171;SDS011;6149;52.418;13.668;2023-04-25T04:55:56;9.60;;;4.37;;
12171;SDS011;6149;52.418;13.668;2023-04-25T04:58:23;7.57;;;4.23;;
12171;SDS011;6149;52.418;13.668;2023-04-25T05:00:53;6.90;;;4.07;;
12171;SDS011;6149;52.418;13.668;2023-04-25T05:03:29;7.17;;;4.00;;
12171;SDS011;6149;52.418;13.668;2023-04-25T05:05:56;5.87;;;4.50;;
12171;SDS011;6149;52.418;13.668;2023-04-25T05:08:24;7.93;;;3.90;;
12171;SDS011;6149;52.418;13.668;2023-04-25T05:10:52;8.93;;;5.23;;
12171;SDS011;6149;52.418;13.668;2023-04-25T05:13:22;7.73;;;4.27;;
12171;SDS011;6149;52.418;13.668;2023-04-25T05:15:50;9.23;;;4.63;;
12171;SDS011;6149;52.418;13.668;2023-04-25T05:18:24;10.97;;;4.70;;
12171;SDS011;6149;52.418;13.668;2023-04-25T05:20:52;8.13;;;5.07;;
12171;SDS011;6149;52.418;13.668;2023-04-25T05:23:23;9.83;;;4.50;;
12171;SDS011;6149;52.418;13.668;2023-04-25T05:25:54;9.27;;;4.97;;
12171;SDS011;6149;52.418;13.668;2023-04-25T05:28:22;10.00;;;4.63;;
12171;SDS011;6149;52.418;13.668;2023-04-25T05:30:51;7.63;;;4.90;;
12171;SDS011;6149;52.418;13.668;2023-04-25T05:33:27;7.40;;;4.77;;
12171;SDS011;6149;52.418;13.668;2023-04-25T05:35:54;8.13;;;4.73;;
12171;SDS011;6149;52.418;13.668;2023-04-25T05:38:24;9.33;;;4.53;;
12171;SDS011;6149;52.418;13.668;2023-04-25T05:40:54;9.63;;;5.13;;
12171;SDS011;6149;52.418;13.668;2023-04-25T05:43:22;9.37;;;5.00;;
12171;SDS011;6149;52.418;13.668;2023-04-25T05:45:51;10.17;;;4.83;;
12171;SDS011;6149;52.418;13.668;2023-04-25T05:48:24;9.77;;;5.47;;
12171;SDS011;6149;52.418;13.668;2023-04-25T05:50:51;9.23;;;4.87;;
12171;SDS011;6149;52.418;13.668;2023-04-25T05:53:20;11.00;;;5.00;;
12171;SDS011;6149;52.418;13.668;2023-04-25T05:55:50;8.43;;;4.70;;
12171;SDS011;6149;52.418;13.668;2023-04-25T05:58:22;7.13;;;4.63;;
12171;SDS011;6149;52.418;13.668;2023-04-25T06:00:52;7.03;;;4.80;;
12171;SDS011;6149;52.418;13.668;2023-04-25T06:03:22;6.23;;;4.83;;
12171;SDS011;6149;52.418;13.668;2023-04-25T06:05:50;6.63;;;4.63;;
12171;SDS011;6149;52.418;13.668;2023-04-25T06:08:18;6.87;;;4.50;;
12171;SDS011;6149;52.418;13.668;2023-04-25T06:10:55;8.33;;;4.40;;
12171;SDS011;6149;52.418;13.668;2023-04-25T06:13:21;7.20;;;4.30;;
12171;SDS011;6149;52.418;13.668;2023-04-25T06:15:50;9.90;;;4.17;;
12171;SDS011;6149;52.418;13.668;2023-04-25T06:18:32;7.60;;;4.20;;
12171;SDS011;6149;52.418;13.668;2023-04-25T06:21:00;7.80;;;4.47;;
12171;SDS011;6149;52.418;13.668;2023-04-25T06:23:28;10.97;;;4.87;;
12171;SDS011;6149;52.418;13.668;2023-04-25T06:25:56;6.77;;;4.37;;
12171;SDS011;6149;52.418;13.668;2023-04-25T06:28:23;8.93;;;4.63;;
12171;SDS011;6149;52.418;13.668;2023-04-25T06:30:50;6.90;;;4.33;;
12171;SDS011;6149;52.418;13.668;2023-04-25T06:33:19;7.53;;;5.00;;
12171;SDS011;6149;52.418;13.668;2023-04-25T06:35:51;7.37;;;4.67;;
12171;SDS011;6149;52.418;13.668;2023-04-25T06:38:21;9.67;;;5.30;;
12171;SDS011;6149;52.418;13.668;2023-04-25T06:40:49;7.93;;;5.33;;
12171;SDS011;6149;52.418;13.668;2023-04-25T06:43:18;8.70;;;4.77;;
12171;SDS011;6149;52.418;13.668;2023-04-25T06:45:45;8.80;;;5.30;;
12171;SDS011;6149;52.418;13.668;2023-04-25T06:48:13;11.23;;;5.17;;
12171;SDS011;6149;52.418;13.668;2023-04-25T06:50:46;8.27;;;5.10;;
12171;SDS011;6149;52.418;13.668;2023-04-25T06:53:14;9.63;;;5.57;;
12171;SDS011;6149;52.418;13.668;2023-04-25T06:55:42;9.07;;;5.17;;
12171;SDS011;6149;52.418;13.668;2023-04-25T06:58:09;9.90;;;5.63;;
12171;SDS011;6149;52.418;13.668;2023-04-25T07:00:39;9.00;;;5.70;;
12171;SDS011;6149;52.418;13.668;2023-04-25T07:03:08;8.47;;;5.30;;
12171;SDS011;6149;52.418;13.668;2023-04-25T07:05:36;10.63;;;5.43;;
12171;SDS011;6149;52.418;13.668;2023-04-25T07:08:05;9.03;;;5.17;;
12171;SDS011;6149;52.418;13.668;2023-04-25T07:10:35;7.60;;;5.27;;
12171;SDS011;6149;52.418;13.668;2023-04-25T07:13:02;10.03;;;5.40;;
12171;SDS011;6149;52.418;13.668;2023-04-25T07:15:30;7.17;;;5.50;;
12171;SDS011;6149;52.418;13.668;2023-04-25T07:17:58;10.13;;;5.87;;
12171;SDS011;6149;52.418;13.668;2023-04-25T07:20:26;9.43;;;5.70;;
12171;SDS011;6149;52.418;13.668;2023-04-25T07:22:54;10.00;;;5.60;;
12171;SDS011;6149;52.418;13.668;2023-04-25T07:25:26;9.17;;;5.80;;
12171;SDS011;6149;52.418;13.668;2023-04-25T07:27:54;9.73;;;4.90;;
12171;SDS011;6149;52.418;13.668;2023-04-25T07:30:24;10.87;;;5.77;;
12171;SDS011;6149;52.418;13.668;2023-04-25T07:32:50;7.87;;;5.00;;
12171;SDS011;6149;52.418;13.668;2023-04-25T07:35:23;9.40;;;5.23;;
12171;SDS011;6149;52.418;13.668;2023-04-25T07:37:51;9.20;;;5.03;;
12171;SDS011;6149;52.418;13.668;2023-04-25T07:40:21;8.63;;;4.87;;
12171;SDS011;6149;52.418;13.668;2023-04-25T07:42:56;8.97;;;5.67;;
12171;SDS011;6149;52.418;13.668;2023-04-25T07:45:24;11.67;;;5.83;;
12171;SDS011;6149;52.418;13.668;2023-04-25T07:47:53;8.37;;;4.77;;
12171;SDS011;6149;52.418;13.668;2023-04-25T07:50:21;6.57;;;4.50;;
12171;SDS011;6149;52.418;13.668;2023-04-25T07:52:52;7.23;;;4.50;;
12171;SDS011;6149;52.418;13.668;2023-04-25T07:55:21;8.80;;;4.37;;
12171;SDS011;6149;52.418;13.668;2023-04-25T07:57:49;6.83;;;4.17;;
12171;SDS011;6149;52.418;13.668;2023-04-25T08:00:18;5.67;;;3.43;;
12171;SDS011;6149;52.418;13.668;2023-04-25T08:02:47;8.13;;;3.87;;
12171;SDS011;6149;52.418;13.668;2023-04-25T08:05:17;6.50;;;3.90;;
12171;SDS011;6149;52.418;13.668;2023-04-25T08:07:45;9.00;;;4.20;;
12171;SDS011;6149;52.418;13.668;2023-04-25T08:10:13;8.77;;;4.37;;
12171;SDS011;6149;52.418;13.668;2023-04-25T08:12:41;10.63;;;4.47;;
12171;SDS011;6149;52.418;13.668;2023-04-25T08:15:09;7.57;;;4.27;;
12171;SDS011;6149;52.418;13.668;2023-04-25T08:17:38;7.53;;;3.90;;
12171;SDS011;6149;52.418;13.668;2023-04-25T08:20:06;8.60;;;4.50;;
12171;SDS011;6149;52.418;13.668;2023-04-25T08:22:36;6.23;;;4.10;;
12171;SDS011;6149;52.418;13.668;2023-04-25T08:25:04;11.37;;;3.90;;
12171;SDS011;6149;52.418;13.668;2023-04-25T08:27:40;9.80;;;4.63;;
12171;SDS011;6149;52.418;13.668;2023-04-25T08:30:08;10.57;;;4.53;;
12171;SDS011;6149;52.418;13.668;2023-04-25T08:32:40;10.00;;;4.00;;
12171;SDS011;6149;52.418;13.668;2023-04-25T08:35:11;13.13;;;5.77;;
12171;SDS011;6149;52.418;13.668;2023-04-25T08:37:38;11.37;;;4.87;;
12171;SDS011;6149;52.418;13.668;2023-04-25T08:40:07;10.10;;;4.33;;
12171;SDS011;6149;52.418;13.668;2023-04-25T08:42:40;10.83;;;4.50;;
12171;SDS011;6149;52.418;13.668;2023-04-25T08:45:09;13.03;;;4.93;;
12171;SDS011;6149;52.418;13.668;2023-04-25T08:47:38;12.40;;;4.17;;
12171;SDS011;6149;52.418;13.668;2023-04-25T08:50:09;11.17;;;4.70;;
12171;SDS011;6149;52.418;13.668;2023-04-25T08:52:40;14.07;;;4.77;;
12171;SDS011;6149;52.418;13.668;2023-04-25T08:55:12;10.73;;;4.80;;
12171;SDS011;6149;52.418;13.668;2023-04-25T08:57:40;14.67;;;5.27;;
12171;SDS011;6149;52.418;13.668;2023-04-25T09:00:10;17.87;;;5.40;;
12171;SDS011;6149;52.418;13.668;2023-04-25T09:02:40;16.40;;;4.90;;
12171;SDS011;6149;52.418;13.668;2023-04-25T09:05:11;16.27;;;5.30;;
12171;SDS011;6149;52.418;13.668;2023-04-25T09:07:40;14.03;;;4.70;;
12171;SDS011;6149;52.418;13.668;2023-04-25T09:10:11;15.00;;;4.13;;
12171;SDS011;6149;52.418;13.668;2023-04-25T09:12:39;11.17;;;3.90;;
12171;SDS011;6149;52.418;13.668;2023-04-25T09:15:08;12.87;;;4.17;;
12171;SDS011;6149;52.418;13.668;2023-04-25T09:17:38;10.03;;;3.87;;
12171;SDS011;6149;52.418;13.668;2023-04-25T09:20:12;10.97;;;3.97;;
12171;SDS011;6149;52.418;13.668;2023-04-25T09:22:42;13.60;;;3.47;;
12171;SDS011;6149;52.418;13.668;2023-04-25T09:25:13;10.90;;;3.53;;
12171;SDS011;6149;52.418;13.668;2023-04-25T09:27:50;11.07;;;3.23;;
12171;SDS011;6149;52.418;13.668;2023-04-25T09:30:28;11.07;;;3.40;;
12171;SDS011;6149;52.418;13.668;2023-04-25T09:32:57;12.13;;;3.27;;
12171;SDS011;6149;52.418;13.668;2023-04-25T09:35:40;8.53;;;3.13;;
12171;SDS011;6149;52.418;13.668;2023-04-25T09:38:10;10.23;;;3.30;;
12171;SDS011;6149;52.418;13.668;2023-04-25T09:40:42;14.33;;;3.07;;
12171;SDS011;6149;52.418;13.668;2023-04-25T09:43:18;9.13;;;3.47;;
12171;SDS011;6149;52.418;13.668;2023-04-25T09:45:49;9.87;;;3.20;;
12171;SDS011;6149;52.418;13.668;2023-04-25T09:48:19;9.60;;;3.27;;
12171;SDS011;6149;52.418;13.668;2023-04-25T09:53:37;10.20;;;3.27;;
12171;SDS011;6149;52.418;13.668;2023-04-25T09:56:07;10.87;;;3.33;;
12171;SDS011;6149;52.418;13.668;2023-04-25T09:58:37;9.67;;;3.20;;
12171;SDS011;6149;52.418;13.668;2023-04-25T10:01:07;13.20;;;3.33;;
12171;SDS011;6149;52.418;13.668;2023-04-25T10:03:37;12.83;;;3.43;;
12171;SDS011;6149;52.418;13.668;2023-04-25T10:06:11;7.23;;;2.63;;
12171;SDS011;6149;52.418;13.668;2023-04-25T10:08:42;9.73;;;3.30;;
12171;SDS011;6149;52.418;13.668;2023-04-25T10:11:13;14.10;;;3.37;;
12171;SDS011;6149;52.418;13.668;2023-04-25T10:13:41;10.87;;;3.40;;
12171;SDS011;6149;52.418;13.668;2023-04-25T10:16:12;8.60;;;3.23;;
12171;SDS011;6149;52.418;13.668;2023-04-25T10:18:40;11.33;;;3.30;;
12171;SDS011;6149;52.418;13.668;2023-04-25T10:21:08;11.73;;;3.07;;
12171;SDS011;6149;52.418;13.668;2023-04-25T10:23:39;12.93;;;3.53;;
12171;SDS011;6149;52.418;13.668;2023-04-25T10:26:08;7.40;;;2.43;;
12171;SDS011;6149;52.418;13.668;2023-04-25T10:31:27;10.97;;;3.63;;
12171;SDS011;6149;52.418;13.668;2023-04-25T10:33:57;10.43;;;3.30;;
12171;SDS011;6149;52.418;13.668;2023-04-25T10:36:30;13.83;;;3.20;;
12171;SDS011;6149;52.418;13.668;2023-04-25T10:38:58;15.17;;;3.47;;
12171;SDS011;6149;52.418;13.668;2023-04-25T10:41:45;7.27;;;2.93;;
12171;SDS011;6149;52.418;13.668;2023-04-25T10:44:15;11.83;;;3.33;;
12171;SDS011;6149;52.418;13.668;2023-04-25T10:46:43;11.30;;;2.83;;
12171;SDS011;6149;52.418;13.668;2023-04-25T10:49:29;8.53;;;2.97;;
12171;SDS011;6149;52.418;13.668;2023-04-25T10:52:28;7.40;;;3.07;;
12171;SDS011;6149;52.418;13.668;2023-04-25T10:54:57;11.37;;;3.13;;
12171;SDS011;6149;52.418;13.668;2023-04-25T10:57:30;8.03;;;2.70;;
12171;SDS011;6149;52.418;13.668;2023-04-25T11:00:08;15.97;;;6.20;;
12171;SDS011;6149;52.418;13.668;2023-04-25T11:02:43;9.77;;;3.13;;
12171;SDS011;6149;52.418;13.668;2023-04-25T11:05:18;8.73;;;3.20;;
12171;SDS011;6149;52.418;13.668;2023-04-25T11:07:58;7.27;;;2.23;;
12171;SDS011;6149;52.418;13.668;2023-04-25T11:10:27;9.37;;;2.87;;
12171;SDS011;6149;52.418;13.668;2023-04-25T11:12:57;6.80;;;2.90;;
12171;SDS011;6149;52.418;13.668;2023-04-25T11:15:26;6.70;;;2.93;;
12171;SDS011;6149;52.418;13.668;2023-04-25T11:17:55;8.40;;;2.87;;
12171;SDS011;6149;52.418;13.668;2023-04-25T11:20:24;13.37;;;2.93;;
12171;SDS011;6149;52.418;13.668;2023-04-25T11:22:54;9.53;;;2.70;;
12171;SDS011;6149;52.418;13.668;2023-04-25T11:25:26;10.10;;;3.00;;
12171;SDS011;6149;52.418;13.668;2023-04-25T11:27:57;14.90;;;2.97;;
12171;SDS011;6149;52.418;13.668;2023-04-25T11:30:27;8.93;;;2.80;;
12171;SDS011;6149;52.418;13.668;2023-04-25T11:32:56;9.77;;;3.27;;
12171;SDS011;6149;52.418;13.668;2023-04-25T11:35:24;9.63;;;2.73;;
12171;SDS011;6149;52.418;13.668;2023-04-25T11:37:53;6.97;;;2.93;;
12171;SDS011;6149;52.418;13.668;2023-04-25T11:40:24;9.33;;;2.50;;
12171;SDS011;6149;52.418;13.668;2023-04-25T11:42:52;12.33;;;2.97;;
12171;SDS011;6149;52.418;13.668;2023-04-25T11:45:28;9.63;;;2.80;;
12171;SDS011;6149;52.418;13.668;2023-04-25T11:47:57;11.80;;;3.17;;
12171;SDS011;6149;52.418;13.668;2023-04-25T11:50:26;7.90;;;2.63;;
12171;SDS011;6149;52.418;13.668;2023-04-25T11:52:56;7.57;;;2.83;;
12171;SDS011;6149;52.418;13.668;2023-04-25T11:55:28;9.20;;;2.67;;
12171;SDS011;6149;52.418;13.668;2023-04-25T11:57:59;6.60;;;2.53;;
12171;SDS011;6149;52.418;13.668;2023-04-25T12:00:28;12.60;;;4.70;;
12171;SDS011;6149;52.418;13.668;2023-04-25T12:02:56;8.33;;;2.20;;
12171;SDS011;6149;52.418;13.668;2023-04-25T12:05:25;8.90;;;3.50;;
12171;SDS011;6149;52.418;13.668;2023-04-25T12:07:55;11.50;;;4.80;;
12171;SDS011;6149;52.418;13.668;2023-04-25T12:10:26;14.50;;;7.17;;
12171;SDS011;6149;52.418;13.668;2023-04-25T12:12:55;8.17;;;2.60;;
12171;SDS011;6149;52.418;13.668;2023-04-25T12:15:26;8.60;;;2.40;;
12171;SDS011;6149;52.418;13.668;2023-04-25T12:17:54;9.13;;;2.40;;
12171;SDS011;6149;52.418;13.668;2023-04-25T12:20:24;5.17;;;1.90;;
12171;SDS011;6149;52.418;13.668;2023-04-25T12:22:51;7.77;;;2.40;;
12171;SDS011;6149;52.418;13.668;2023-04-25T12:25:39;7.23;;;2.20;;
12171;SDS011;6149;52.418;13.668;2023-04-25T12:28:12;7.17;;;2.40;;
12171;SDS011;6149;52.418;13.668;2023-04-25T12:30:54;5.93;;;1.90;;
12171;SDS011;6149;52.418;13.668;2023-04-25T12:33:25;8.90;;;2.50;;
12171;SDS011;6149;52.418;13.668;2023-04-25T12:35:57;7.43;;;2.43;;
12171;SDS011;6149;52.418;13.668;2023-04-25T12:38:30;6.40;;;2.20;;
12171;SDS011;6149;52.418;13.668;2023-04-25T12:41:03;7.60;;;2.37;;
12171;SDS011;6149;52.418;13.668;2023-04-25T12:43:32;9.17;;;2.60;;
12171;SDS011;6149;52.418;13.668;2023-04-25T12:46:00;5.90;;;2.20;;
12171;SDS011;6149;52.418;13.668;2023-04-25T12:48:28;6.77;;;2.37;;
12171;SDS011;6149;52.418;13.668;2023-04-25T12:50:56;9.50;;;2.20;;
12171;SDS011;6149;52.418;13.668;2023-04-25T12:53:25;12.27;;;2.83;;
12171;SDS011;6149;52.418;13.668;2023-04-25T12:55:53;7.03;;;2.20;;
12171;SDS011;6149;52.418;13.668;2023-04-25T12:58:34;5.23;;;2.07;;
12171;SDS011;6149;52.418;13.668;2023-04-25T13:01:02;9.03;;;2.57;;
12171;SDS011;6149;52.418;13.668;2023-04-25T13:03:29;13.13;;;2.57;;
12171;SDS011;6149;52.418;13.668;2023-04-25T13:05:57;8.43;;;2.07;;
12171;SDS011;6149;52.418;13.668;2023-04-25T13:08:26;9.83;;;2.50;;
12171;SDS011;6149;52.418;13.668;2023-04-25T13:10:56;5.63;;;2.20;;
12171;SDS011;6149;52.418;13.668;2023-04-25T13:13:29;7.07;;;2.23;;
12171;SDS011;6149;52.418;13.668;2023-04-25T13:15:57;5.47;;;2.07;;
12171;SDS011;6149;52.418;13.668;2023-04-25T13:18:25;5.90;;;1.90;;
12171;SDS011;6149;52.418;13.668;2023-04-25T13:20:52;5.37;;;2.50;;
12171;SDS011;6149;52.418;13.668;2023-04-25T13:23:21;7.73;;;2.23;;
12171;SDS011;6149;52.418;13.668;2023-04-25T13:25:57;9.03;;;2.63;;
12171;SDS011;6149;52.418;13.668;2023-04-25T13:28:28;7.87;;;2.43;;
12171;SDS011;6149;52.418;13.668;2023-04-25T13:30:56;5.47;;;2.23;;
12171;SDS011;6149;52.418;13.668;2023-04-25T13:33:25;8.27;;;2.40;;
12171;SDS011;6149;52.418;13.668;2023-04-25T13:35:56;7.20;;;2.47;;
12171;SDS011;6149;52.418;13.668;2023-04-25T13:38:24;7.13;;;2.40;;
12171;SDS011;6149;52.418;13.668;2023-04-25T13:40:53;5.70;;;2.10;;
12171;SDS011;6149;52.418;13.668;2023-04-25T13:43:21;3.93;;;1.83;;
12171;SDS011;6149;52.418;13.668;2023-04-25T13:45:57;3.83;;;1.43;;
12171;SDS011;6149;52.418;13.668;2023-04-25T13:48:25;4.10;;;1.63;;
12171;SDS011;6149;52.418;13.668;2023-04-25T13:50:53;5.83;;;1.40;;
12171;SDS011;6149;52.418;13.668;2023-04-25T13:53:22;6.83;;;1.63;;
12171;SDS011;6149;52.418;13.668;2023-04-25T13:55:51;3.70;;;1.60;;
12171;SDS011;6149;52.418;13.668;2023-04-25T13:58:19;8.17;;;2.03;;
12171;SDS011;6149;52.418;13.668;2023-04-25T14:00:46;7.57;;;1.70;;
12171;SDS011;6149;52.418;13.668;2023-04-25T14:03:13;6.13;;;1.93;;
12171;SDS011;6149;52.418;13.668;2023-04-25T14:05:41;6.43;;;1.77;;
12171;SDS011;6149;52.418;13.668;2023-04-25T14:08:09;6.27;;;1.90;;
12171;SDS011;6149;52.418;13.668;2023-04-25T14:10:37;8.97;;;2.00;;
12171;SDS011;6149;52.418;13.668;2023-04-25T14:13:05;5.10;;;1.97;;
12171;SDS011;6149;52.418;13.668;2023-04-25T14:15:36;4.97;;;2.17;;
12171;SDS011;6149;52.418;13.668;2023-04-25T14:18:04;5.50;;;1.80;;
12171;SDS011;6149;52.418;13.668;2023-04-25T14:20:36;5.30;;;1.90;;
12171;SDS011;6149;52.418;13.668;2023-04-25T14:23:04;5.80;;;2.03;;
12171;SDS011;6149;52.418;13.668;2023-04-25T14:25:33;5.77;;;2.13;;
12171;SDS011;6149;52.418;13.668;2023-04-25T14:28:02;5.87;;;2.10;;
12171;SDS011;6149;52.418;13.668;2023-04-25T14:30:31;4.87;;;1.70;;
12171;SDS011;6149;52.418;13.668;2023-04-25T14:33:00;6.40;;;1.83;;
12171;SDS011;6149;52.418;13.668;2023-04-25T14:35:27;4.60;;;1.90;;
12171;SDS011;6149;52.418;13.668;2023-04-25T14:38:00;5.60;;;1.87;;
12171;SDS011;6149;52.418;13.668;2023-04-25T14:40:30;5.47;;;2.00;;
12171;SDS011;6149;52.418;13.668;2023-04-25T14:42:57;7.30;;;2.10;;
12171;SDS011;6149;52.418;13.668;2023-04-25T14:45:26;6.50;;;1.80;;
12171;SDS011;6149;52.418;13.668;2023-04-25T14:47:56;7.07;;;2.27;;
12171;SDS011;6149;52.418;13.668;2023-04-25T14:50:26;10.33;;;2.40;;
12171;SDS011;6149;52.418;13.668;2023-04-25T14:52:54;9.23;;;2.00;;
12171;SDS011;6149;52.418;13.668;2023-04-25T14:55:28;6.80;;;1.90;;
12171;SDS011;6149;52.418;13.668;2023-04-25T14:57:56;3.50;;;1.80;;
12171;SDS011;6149;52.418;13.668;2023-04-25T15:00:27;3.67;;;1.47;;
12171;SDS011;6149;52.418;13.668;2023-04-25T15:02:57;6.60;;;1.93;;
12171;SDS011;6149;52.418;13.668;2023-04-25T15:05:25;4.30;;;2.40;;
12171;SDS011;6149;52.418;13.668;2023-04-25T15:07:54;3.93;;;1.90;;